Terminal Aerodrome Forecast
Issued by NWS

Home | Current Version | Previous Version | Text Only | Print | Product List | Glossary On
Versions: 1 2 3 4 5 6 7 8 9 10 11 12 13 14 15 16 17 18 19 20 21 22 23
000
FTUS42 KCAE 292300
TAFDNL
TAF
KDNL 292320Z 3000/3024 VRB03KT P6SM SCT250
     FM300300 16003KT P6SM BKN040
     FM300900 19005KT P6SM BKN060
     FM301300 22010G16KT P6SM VCSH SCT025 OVC050
     FM301900 29010KT P6SM SCT250=

USA.gov is the U.S. government's official web portal to all federal, state and local government web resources and services.